createdAt,value
2023-05-20T00:00:20.226Z,0.67
2023-05-20T00:01:20.164Z,0.67
2023-05-20T00:02:19.415Z,0.66
2023-05-20T00:03:20.271Z,0.67
2023-05-20T00:04:19.327Z,0.67
2023-05-20T00:05:19.228Z,0.67
2023-05-20T00:06:19.347Z,0.67
2023-05-20T00:07:19.483Z,0.68
2023-05-20T00:08:19.380Z,0.66
2023-05-20T00:09:19.505Z,0.66
2023-05-20T00:10:20.432Z,0.67
2023-05-20T00:11:20.453Z,0.67
2023-05-20T00:12:19.583Z,0.65
2023-05-20T00:13:20.614Z,0.67
2023-05-20T00:14:20.487Z,0.67
2023-05-20T00:15:19.516Z,0.67
2023-05-20T00:16:20.571Z,0.66
2023-05-20T00:17:19.564Z,0.67
2023-05-20T00:18:19.585Z,0.66
2023-05-20T00:19:20.664Z,0.66
2023-05-20T00:20:19.617Z,0.66
2023-05-20T00:21:19.666Z,0.66
2023-05-20T00:22:20.691Z,0.65
2023-05-20T00:23:19.787Z,0.68
2023-05-20T00:24:19.740Z,0.66
2023-05-20T00:25:19.918Z,0.66
2023-05-20T00:26:20.933Z,0.67
2023-05-20T00:27:20.942Z,0.68
2023-05-20T00:28:20.903Z,0.68
2023-05-20T00:29:19.840Z,0.66
2023-05-20T00:30:19.885Z,0.67
2023-05-20T00:31:20.047Z,0.68
2023-05-20T00:32:21.175Z,0.64
2023-05-20T00:33:21.087Z,0.67
2023-05-20T00:34:21.021Z,0.67
2023-05-20T00:35:21.012Z,0.67
2023-05-20T00:36:20.034Z,0.68
2023-05-20T00:37:20.283Z,0.68
2023-05-20T00:38:20.225Z,0.67
2023-05-20T00:39:21.193Z,0.67
2023-05-20T00:40:20.212Z,0.67
2023-05-20T00:41:20.227Z,0.68
2023-05-20T00:42:20.205Z,0.67
2023-05-20T00:43:20.183Z,0.67
2023-05-20T00:44:20.240Z,0.67
2023-05-20T00:45:20.263Z,0.66
2023-05-20T00:46:21.304Z,0.66
2023-05-20T00:47:20.299Z,0.66
2023-05-20T00:48:20.460Z,0.67
2023-05-20T00:49:20.369Z,0.66
2023-05-20T00:50:20.431Z,0.68
2023-05-20T00:51:21.383Z,0.67
2023-05-20T00:52:21.438Z,0.66
2023-05-20T00:53:20.442Z,0.66
2023-05-20T00:54:21.485Z,0.66
2023-05-20T00:55:21.497Z,0.67
2023-05-20T00:56:20.504Z,0.66
2023-05-20T00:57:20.563Z,0.66
2023-05-20T00:58:20.722Z,0.67
2023-05-20T00:59:21.572Z,0.66
2023-05-20T01:00:20.685Z,0.65
2023-05-20T01:01:20.914Z,0.65
2023-05-20T01:02:21.892Z,0.65
2023-05-20T01:03:21.038Z,0.66
2023-05-20T01:04:22.058Z,0.66
2023-05-20T01:05:21.133Z,0.67
2023-05-20T01:06:21.998Z,0.67
2023-05-20T01:07:21.943Z,0.66
2023-05-20T01:08:21.861Z,0.66
2023-05-20T01:09:21.015Z,0.66
2023-05-20T01:10:20.944Z,0.68
2023-05-20T01:11:21.910Z,0.68
2023-05-20T01:12:22.207Z,0.67
2023-05-20T01:13:22.013Z,0.66
2023-05-20T01:14:21.143Z,0.66
2023-05-20T01:15:21.232Z,0.67
2023-05-20T01:16:22.159Z,0.65
2023-05-20T01:17:22.211Z,0.66
2023-05-20T01:18:22.418Z,0.67
2023-05-20T01:19:21.406Z,0.66
2023-05-20T01:20:21.284Z,0.66
2023-05-20T01:21:22.329Z,0.65
2023-05-20T01:22:21.339Z,0.65
2023-05-20T01:23:21.474Z,0.67
2023-05-20T01:24:21.592Z,0.67
2023-05-20T01:25:22.430Z,0.68
2023-05-20T01:26:21.454Z,0.65
2023-05-20T01:27:21.526Z,0.66
2023-05-20T01:28:22.491Z,0.67
2023-05-20T01:29:21.563Z,0.66
2023-05-20T01:30:21.728Z,0.65
2023-05-20T01:31:21.768Z,0.65
2023-05-20T01:32:22.930Z,0.67
2023-05-20T01:33:21.751Z,0.66
2023-05-20T01:34:21.732Z,0.67
2023-05-20T01:35:21.922Z,0.65
2023-05-20T01:36:21.850Z,0.66
2023-05-20T01:37:21.824Z,0.66
2023-05-20T01:38:23.117Z,0.66
2023-05-20T01:39:22.921Z,0.66
2023-05-20T01:40:21.945Z,0.66
2023-05-20T01:41:22.944Z,0.67
2023-05-20T01:42:22.974Z,0.67
2023-05-20T01:43:22.117Z,0.65
2023-05-20T01:44:22.055Z,0.67
2023-05-20T01:45:23.350Z,0.66
2023-05-20T01:46:22.301Z,0.66
2023-05-20T01:47:22.177Z,0.67
2023-05-20T01:48:22.435Z,0.67
2023-05-20T01:49:22.477Z,0.68
2023-05-20T01:50:23.551Z,0.67
2023-05-20T01:51:23.537Z,0.68
2023-05-20T01:52:23.530Z,0.68
2023-05-20T01:53:23.372Z,0.67
2023-05-20T01:54:23.500Z,0.67
2023-05-20T01:55:22.483Z,0.67
2023-05-20T01:56:22.520Z,0.66
2023-05-20T01:57:22.569Z,0.67
2023-05-20T01:58:22.557Z,0.66
2023-05-20T01:59:23.588Z,0.66
2023-05-20T02:00:22.630Z,0.66
2023-05-20T02:01:22.786Z,0.67
2023-05-20T02:02:23.770Z,0.68
2023-05-20T02:03:22.813Z,0.65
2023-05-20T02:04:22.749Z,0.67
2023-05-20T02:05:23.084Z,0.66
2023-05-20T02:06:22.947Z,0.66
2023-05-20T02:07:23.921Z,0.66
2023-05-20T02:08:24.130Z,0.64
2023-05-20T02:09:22.976Z,0.68
2023-05-20T02:10:24.083Z,0.67
2023-05-20T02:11:24.009Z,0.65
2023-05-20T02:12:24.094Z,0.68
2023-05-20T02:13:24.220Z,0.65
2023-05-20T02:14:23.085Z,0.66
2023-05-20T02:15:24.123Z,0.67
2023-05-20T02:16:23.389Z,0.66
2023-05-20T02:17:24.280Z,0.67
2023-05-20T02:18:23.310Z,0.67
2023-05-20T02:19:23.583Z,0.66
2023-05-20T02:20:24.327Z,0.66
2023-05-20T02:21:24.612Z,0.66
2023-05-20T02:22:23.562Z,0.67
2023-05-20T02:23:23.466Z,0.66
2023-05-20T02:24:23.728Z,0.66
2023-05-20T02:25:24.580Z,0.65
2023-05-20T02:26:24.601Z,0.67
2023-05-20T02:27:24.844Z,0.67
2023-05-20T02:28:24.630Z,0.66
2023-05-20T02:29:24.662Z,0.66
2023-05-20T02:30:24.710Z,0.67
2023-05-20T02:31:24.755Z,0.67
2023-05-20T02:32:24.745Z,0.66
2023-05-20T02:33:24.807Z,0.65
2023-05-20T02:34:25.101Z,0.67
2023-05-20T02:35:24.019Z,0.64
2023-05-20T02:36:23.950Z,0.65
2023-05-20T02:37:23.929Z,0.66
2023-05-20T02:38:23.993Z,0.66
2023-05-20T02:39:24.039Z,0.67
2023-05-20T02:40:24.241Z,0.66
2023-05-20T02:41:24.093Z,0.65
2023-05-20T02:42:25.145Z,0.65
2023-05-20T02:43:25.149Z,0.66
2023-05-20T02:44:25.215Z,0.68
2023-05-20T02:45:25.416Z,0.67
2023-05-20T02:46:25.273Z,0.65
2023-05-20T02:47:25.397Z,0.66
2023-05-20T02:48:25.371Z,0.67
2023-05-20T02:49:24.401Z,0.67
2023-05-20T02:50:24.482Z,0.67
2023-05-20T02:51:25.503Z,0.65
2023-05-20T02:52:25.577Z,0.65
2023-05-20T02:53:24.532Z,0.65
2023-05-20T02:54:25.598Z,0.66
2023-05-20T02:55:24.621Z,0.65
2023-05-20T02:56:24.749Z,0.66
2023-05-20T02:57:25.752Z,0.66
2023-05-20T02:58:25.773Z,0.66
2023-05-20T02:59:25.774Z,0.66
2023-05-20T03:00:25.804Z,0.65
2023-05-20T03:01:26.051Z,0.66
2023-05-20T03:02:25.939Z,0.65
2023-05-20T03:03:24.894Z,0.64
2023-05-20T03:04:25.019Z,0.66
2023-05-20T03:05:25.911Z,0.66
2023-05-20T03:06:25.938Z,0.64
2023-05-20T03:07:25.110Z,0.65
2023-05-20T03:08:26.181Z,0.64
2023-05-20T03:09:26.051Z,0.65
2023-05-20T03:10:25.076Z,0.66
2023-05-20T03:11:25.108Z,0.65
2023-05-20T03:12:25.121Z,0.65
2023-05-20T03:13:25.156Z,0.64
2023-05-20T03:14:26.255Z,0.66
2023-05-20T03:15:26.313Z,0.66
2023-05-20T03:16:25.410Z,0.64
2023-05-20T03:17:25.588Z,0.66
2023-05-20T03:18:25.359Z,0.66
2023-05-20T03:19:26.466Z,0.66
2023-05-20T03:20:25.479Z,0.65
2023-05-20T03:21:25.483Z,0.65
2023-05-20T03:22:26.581Z,0.65
2023-05-20T03:23:25.512Z,0.65
2023-05-20T03:24:25.544Z,0.65
2023-05-20T03:25:25.892Z,0.65
2023-05-20T03:26:26.577Z,0.65
2023-05-20T03:27:26.615Z,0.66
2023-05-20T03:28:25.763Z,0.66
2023-05-20T03:29:25.656Z,0.65
2023-05-20T03:30:26.850Z,0.65
2023-05-20T03:31:25.913Z,0.63
2023-05-20T03:32:25.915Z,0.64
2023-05-20T03:33:25.937Z,0.66
2023-05-20T03:34:26.802Z,0.64
2023-05-20T03:35:26.883Z,0.65
2023-05-20T03:36:26.948Z,0.65
2023-05-20T03:37:25.930Z,0.64
2023-05-20T03:38:26.007Z,0.66
2023-05-20T03:39:26.102Z,0.64
2023-05-20T03:40:26.101Z,0.65
2023-05-20T03:41:26.372Z,0.65
2023-05-20T03:42:27.349Z,0.64
2023-05-20T03:43:26.255Z,0.64
2023-05-20T03:44:27.203Z,0.64
2023-05-20T03:45:26.499Z,0.64
2023-05-20T03:46:26.368Z,0.65
2023-05-20T03:47:26.287Z,0.66
2023-05-20T03:48:26.249Z,0.66
2023-05-20T03:49:27.446Z,0.65
2023-05-20T03:50:26.462Z,0.64
2023-05-20T03:51:27.306Z,0.65
2023-05-20T03:52:27.329Z,0.65
2023-05-20T03:53:27.554Z,0.64
2023-05-20T03:54:26.613Z,0.66
2023-05-20T03:55:26.496Z,0.65
2023-05-20T03:56:26.576Z,0.64
2023-05-20T03:57:26.685Z,0.64
2023-05-20T03:58:26.578Z,0.65
2023-05-20T03:59:27.708Z,0.64
2023-05-20T04:00:26.732Z,0.65
2023-05-20T04:01:27.682Z,0.64
2023-05-20T04:02:26.933Z,0.64
2023-05-20T04:03:26.877Z,0.65
2023-05-20T04:04:27.643Z,0.65
2023-05-20T04:05:26.707Z,0.65
2023-05-20T04:06:27.766Z,0.65
2023-05-20T04:07:27.625Z,0.64
2023-05-20T04:08:26.684Z,0.63
2023-05-20T04:09:27.685Z,0.63
2023-05-20T04:10:26.680Z,0.64
2023-05-20T04:11:26.707Z,0.63
2023-05-20T04:12:26.933Z,0.65
2023-05-20T04:13:27.744Z,0.64
2023-05-20T04:14:26.847Z,0.65
2023-05-20T04:15:26.836Z,0.62
2023-05-20T04:16:26.960Z,0.64
2023-05-20T04:17:26.797Z,0.64
2023-05-20T04:18:27.751Z,0.64
2023-05-20T04:19:26.803Z,0.64
2023-05-20T04:20:26.727Z,0.64
2023-05-20T04:21:26.978Z,0.63
2023-05-20T04:22:26.778Z,0.63
2023-05-20T04:23:26.729Z,0.63
2023-05-20T04:24:27.755Z,0.64
2023-05-20T04:25:27.792Z,0.63
2023-05-20T04:26:27.792Z,0.64
2023-05-20T04:27:26.794Z,0.63
2023-05-20T04:28:26.929Z,0.63
2023-05-20T04:29:26.995Z,0.63
2023-05-20T04:30:28.119Z,0.64
2023-05-20T04:31:27.928Z,0.64
2023-05-20T04:32:27.886Z,0.63
2023-05-20T04:33:27.920Z,0.62
2023-05-20T04:34:27.030Z,0.63
2023-05-20T04:35:27.050Z,0.64
2023-05-20T04:36:27.919Z,0.63
2023-05-20T04:37:27.921Z,0.64
2023-05-20T04:38:29.605Z,0.63
2023-05-20T04:39:26.891Z,0.63
2023-05-20T04:40:28.002Z,0.64
2023-05-20T04:41:26.912Z,0.66
2023-05-20T04:42:27.071Z,0.63
2023-05-20T04:43:27.938Z,0.64
2023-05-20T04:44:27.990Z,0.63
2023-05-20T04:45:26.875Z,0.65
2023-05-20T04:46:26.939Z,0.64
2023-05-20T04:47:26.971Z,0.63
2023-05-20T04:48:27.917Z,0.64
2023-05-20T04:49:26.854Z,0.64
2023-05-20T04:50:27.833Z,0.64
2023-05-20T04:51:28.070Z,0.63
2023-05-20T04:52:26.795Z,0.64
2023-05-20T04:53:26.848Z,0.63
2023-05-20T04:54:26.806Z,0.65
2023-05-20T04:55:26.784Z,0.63
2023-05-20T04:56:27.774Z,0.63
2023-05-20T04:57:26.948Z,0.64
2023-05-20T04:58:26.762Z,0.64
2023-05-20T04:59:27.814Z,0.64
2023-05-20T05:00:26.953Z,0.64
2023-05-20T05:01:27.001Z,0.65
2023-05-20T05:02:26.797Z,0.63
2023-05-20T05:03:27.764Z,0.65
2023-05-20T05:04:27.823Z,0.63
2023-05-20T05:05:26.959Z,0.65
2023-05-20T05:06:27.053Z,0.62
2023-05-20T05:07:26.777Z,0.64
2023-05-20T05:08:26.899Z,0.62
2023-05-20T05:09:27.737Z,0.65
2023-05-20T05:10:27.685Z,0.65
2023-05-20T05:11:27.673Z,0.62
2023-05-20T05:12:26.763Z,0.64
2023-05-20T05:13:26.759Z,0.65
2023-05-20T05:14:26.657Z,0.65
2023-05-20T05:15:26.675Z,0.65
2023-05-20T05:16:26.789Z,0.63
2023-05-20T05:17:27.826Z,0.63
2023-05-20T05:18:26.765Z,0.63
2023-05-20T05:19:27.906Z,0.64
2023-05-20T05:20:27.838Z,0.64
2023-05-20T05:21:27.914Z,0.65
2023-05-20T05:22:27.924Z,0.65
2023-05-20T05:23:26.936Z,0.65
2023-05-20T05:24:26.970Z,0.64
2023-05-20T05:25:28.025Z,0.62
2023-05-20T05:26:28.237Z,0.66
2023-05-20T05:27:28.074Z,0.64
2023-05-20T05:28:28.237Z,0.65
2023-05-20T05:29:28.314Z,0.65
2023-05-20T05:30:27.206Z,0.66
2023-05-20T05:31:28.212Z,0.65
2023-05-20T05:32:27.476Z,0.65
2023-05-20T05:33:27.378Z,0.64
2023-05-20T05:34:28.355Z,0.66
2023-05-20T05:35:28.435Z,0.64
2023-05-20T05:36:28.528Z,0.66
2023-05-20T05:37:28.513Z,0.65
2023-05-20T05:38:28.652Z,0.64
2023-05-20T05:39:28.555Z,0.65
2023-05-20T05:40:27.634Z,0.64
2023-05-20T05:41:27.740Z,0.66
2023-05-20T05:42:28.768Z,0.65
2023-05-20T05:43:27.726Z,0.64
2023-05-20T05:44:28.774Z,0.63
2023-05-20T05:45:28.782Z,0.65
2023-05-20T05:46:28.973Z,0.66
2023-05-20T05:47:28.969Z,0.66
2023-05-20T05:48:28.841Z,0.66
2023-05-20T05:49:27.901Z,0.65
2023-05-20T05:50:29.016Z,0.64
2023-05-20T05:51:29.142Z,0.66
2023-05-20T05:52:28.027Z,0.64
2023-05-20T05:53:28.007Z,0.66
2023-05-20T05:54:29.132Z,0.67
2023-05-20T05:55:28.082Z,0.65
2023-05-20T05:56:28.327Z,0.65
2023-05-20T05:57:28.155Z,0.66
2023-05-20T05:58:28.207Z,0.65
2023-05-20T05:59:29.333Z,0.66
2023-05-20T06:00:29.515Z,0.65
2023-05-20T06:01:28.430Z,0.66
2023-05-20T06:02:29.716Z,0.65
2023-05-20T06:03:28.654Z,0.66
2023-05-20T06:04:28.601Z,0.65
2023-05-20T06:05:29.912Z,0.65
2023-05-20T06:06:28.716Z,0.65
2023-05-20T06:07:29.526Z,0.64
2023-05-20T06:08:28.532Z,0.66
2023-05-20T06:09:29.694Z,0.65
2023-05-20T06:10:28.839Z,0.65
2023-05-20T06:11:28.757Z,0.66
2023-05-20T06:12:28.731Z,0.68
2023-05-20T06:13:29.783Z,0.65
2023-05-20T06:14:28.811Z,0.66
2023-05-20T06:15:28.729Z,0.66
2023-05-20T06:16:30.016Z,0.66
2023-05-20T06:17:28.841Z,0.67
2023-05-20T06:18:29.797Z,0.66
2023-05-20T06:19:29.071Z,0.67
2023-05-20T06:20:29.843Z,0.66
2023-05-20T06:21:30.027Z,0.67
2023-05-20T06:22:29.997Z,0.66
2023-05-20T06:23:29.040Z,0.65
2023-05-20T06:24:29.052Z,0.66
2023-05-20T06:25:29.025Z,0.67
2023-05-20T06:26:30.062Z,0.66
2023-05-20T06:27:29.043Z,0.65
2023-05-20T06:28:30.093Z,0.66
2023-05-20T06:29:30.124Z,0.67
2023-05-20T06:30:29.382Z,0.65
2023-05-20T06:31:29.290Z,0.66
2023-05-20T06:32:30.368Z,0.66
2023-05-20T06:33:30.335Z,0.67
2023-05-20T06:34:30.255Z,0.66
2023-05-20T06:35:29.408Z,0.65
2023-05-20T06:36:31.204Z,0.66
2023-05-20T06:37:30.376Z,0.67
2023-05-20T06:38:29.325Z,0.69
2023-05-20T06:39:30.532Z,0.67
2023-05-20T06:40:29.337Z,0.67
2023-05-20T06:41:29.299Z,0.66
2023-05-20T06:42:29.321Z,0.67
2023-05-20T06:43:29.353Z,0.67
2023-05-20T06:44:29.283Z,0.66
2023-05-20T06:45:29.289Z,0.66
2023-05-20T06:46:30.409Z,0.66
2023-05-20T06:47:29.391Z,0.66
2023-05-20T06:48:29.317Z,0.69
2023-05-20T06:49:30.270Z,0.66
2023-05-20T06:50:30.246Z,0.68
2023-05-20T06:51:30.263Z,0.67
2023-05-20T06:52:29.501Z,0.67
2023-05-20T06:53:30.221Z,0.66
2023-05-20T06:54:29.208Z,0.66
2023-05-20T06:55:29.358Z,0.68
2023-05-20T06:56:29.364Z,0.66
2023-05-20T06:57:29.224Z,0.66
2023-05-20T06:58:29.263Z,0.68
2023-05-20T06:59:29.183Z,0.66
2023-05-20T07:00:29.253Z,0.65
2023-05-20T07:01:29.335Z,0.67
2023-05-20T07:02:29.455Z,0.66
2023-05-20T07:03:30.478Z,0.67
2023-05-20T07:04:30.629Z,0.67
2023-05-20T07:05:30.660Z,0.67
2023-05-20T07:06:29.726Z,0.66
2023-05-20T07:07:29.777Z,0.67
2023-05-20T07:08:30.792Z,0.65
2023-05-20T07:09:29.987Z,0.68
2023-05-20T07:10:30.113Z,0.67
2023-05-20T07:11:30.004Z,0.67
2023-05-20T07:12:31.009Z,0.67
2023-05-20T07:13:30.068Z,0.67
2023-05-20T07:14:31.133Z,0.69
2023-05-20T07:15:31.191Z,0.67
2023-05-20T07:16:30.405Z,0.69
2023-05-20T07:17:31.430Z,0.68
2023-05-20T07:18:30.460Z,0.68
2023-05-20T07:19:31.654Z,0.68
2023-05-20T07:20:30.609Z,0.68
2023-05-20T07:21:30.532Z,0.66
2023-05-20T07:22:31.633Z,0.68
2023-05-20T07:23:30.760Z,0.67
2023-05-20T07:24:31.716Z,0.68
2023-05-20T07:25:32.101Z,0.68
2023-05-20T07:26:31.030Z,0.67
2023-05-20T07:27:31.868Z,0.66
2023-05-20T07:28:32.018Z,0.67
2023-05-20T07:29:31.148Z,0.67
2023-05-20T07:30:31.271Z,0.67
2023-05-20T07:31:32.303Z,0.69
2023-05-20T07:32:32.245Z,0.68
2023-05-20T07:33:31.340Z,0.70
2023-05-20T07:34:31.257Z,0.68
2023-05-20T07:35:31.482Z,0.68
2023-05-20T07:36:32.476Z,0.69
2023-05-20T07:37:32.460Z,0.67
2023-05-20T07:38:31.472Z,0.68
2023-05-20T07:39:32.625Z,0.69
2023-05-20T07:40:32.048Z,0.67
2023-05-20T07:41:32.631Z,0.67
2023-05-20T07:42:31.671Z,0.68
2023-05-20T07:43:32.775Z,0.68
2023-05-20T07:44:31.940Z,0.69
2023-05-20T07:45:33.216Z,0.67
2023-05-20T07:46:33.090Z,0.69
2023-05-20T07:47:32.922Z,0.67
2023-05-20T07:48:33.059Z,0.68
2023-05-20T07:49:32.154Z,0.67
2023-05-20T07:50:32.115Z,0.68
2023-05-20T07:51:32.276Z,0.68
2023-05-20T07:52:44.130Z,0.68
2023-05-20T07:53:33.180Z,0.68
2023-05-20T07:54:33.275Z,0.68
2023-05-20T07:55:33.324Z,0.69
2023-05-20T07:56:32.335Z,0.69
2023-05-20T07:57:33.130Z,0.70
2023-05-20T07:58:32.021Z,0.70
2023-05-20T07:59:32.167Z,0.68
2023-05-20T08:00:32.024Z,0.68
2023-05-20T08:01:33.044Z,0.70
2023-05-20T08:02:33.095Z,0.70
2023-05-20T08:03:33.063Z,0.70
2023-05-20T08:04:33.106Z,0.70
2023-05-20T08:05:33.220Z,0.70
2023-05-20T08:06:32.286Z,0.69
2023-05-20T08:07:33.172Z,0.71
2023-05-20T08:08:31.965Z,0.69
2023-05-20T08:09:32.111Z,0.69
2023-05-20T08:10:31.982Z,0.69
2023-05-20T08:11:31.936Z,0.70
2023-05-20T08:12:32.951Z,0.71
2023-05-20T08:13:32.978Z,0.70
2023-05-20T08:14:32.909Z,0.71
2023-05-20T08:15:33.232Z,0.71
2023-05-20T08:16:32.079Z,0.69
2023-05-20T08:17:32.106Z,0.69
2023-05-20T08:18:32.149Z,0.69
2023-05-20T08:19:33.257Z,0.69
2023-05-20T08:20:33.177Z,0.70
2023-05-20T08:21:32.229Z,0.71
2023-05-20T08:22:33.333Z,0.69
2023-05-20T08:23:35.896Z,0.70
2023-05-20T08:24:33.408Z,0.70
2023-05-20T08:25:32.584Z,0.70
2023-05-20T08:26:32.360Z,0.71
2023-05-20T08:27:33.280Z,0.70
2023-05-20T08:28:33.346Z,0.70
2023-05-20T08:29:32.319Z,0.70
2023-05-20T08:30:32.264Z,0.71
2023-05-20T08:31:33.408Z,0.70
2023-05-20T08:32:33.300Z,0.70
2023-05-20T08:33:32.283Z,0.68
2023-05-20T08:34:32.274Z,0.71
2023-05-20T08:35:32.421Z,0.70
2023-05-20T08:36:33.264Z,0.69
2023-05-20T08:37:32.291Z,0.68
2023-05-20T08:41:17.823Z,0.50
2023-05-20T08:42:18.764Z,0.50
2023-05-20T08:43:18.786Z,0.50
2023-05-20T08:44:18.634Z,0.50
2023-05-20T08:45:17.623Z,0.50
2023-05-20T08:46:18.570Z,0.50
2023-05-20T08:47:17.739Z,0.50
2023-05-20T08:48:17.899Z,0.50
2023-05-20T08:49:17.848Z,0.50
2023-05-20T08:50:17.833Z,0.51
2023-05-20T08:51:18.868Z,0.51
2023-05-20T08:54:48.139Z,0.50
2023-05-20T08:55:48.265Z,0.50
2023-05-20T08:56:49.183Z,0.50
2023-05-20T08:57:48.043Z,0.50
2023-05-20T08:58:48.122Z,0.50
2023-05-20T08:59:48.048Z,0.51
2023-05-20T09:00:48.098Z,0.50
2023-05-20T09:01:49.018Z,0.51
2023-05-20T09:02:48.098Z,0.51
2023-05-20T09:03:47.985Z,0.51
2023-05-20T09:04:48.074Z,0.51
2023-05-20T09:05:48.025Z,0.52
2023-05-20T09:06:49.014Z,0.51
2023-05-20T09:07:47.962Z,0.50
2023-05-20T09:08:49.145Z,0.51
2023-05-20T09:09:47.963Z,0.51
2023-05-20T09:10:48.005Z,0.51
2023-05-20T09:11:48.966Z,0.51
2023-05-20T09:12:48.043Z,0.50
2023-05-20T09:13:47.909Z,0.51
2023-05-20T09:14:49.005Z,0.51
2023-05-20T09:15:47.956Z,0.50
2023-05-20T09:16:48.009Z,0.51
2023-05-20T09:17:48.006Z,0.52
2023-05-20T09:18:48.994Z,0.51
2023-05-20T09:19:48.067Z,0.53
2023-05-20T09:20:48.921Z,0.51
2023-05-20T09:21:48.010Z,0.53
2023-05-20T09:22:48.093Z,0.53
2023-05-20T09:23:48.102Z,0.53
2023-05-20T09:24:47.981Z,0.52
2023-05-20T09:25:47.853Z,0.52
2023-05-20T09:26:47.839Z,0.52
2023-05-20T09:27:48.961Z,0.50
2023-05-20T09:28:47.865Z,0.52
2023-05-20T09:29:47.881Z,0.52
2023-05-20T09:30:48.980Z,0.53
2023-05-20T09:31:48.946Z,0.51
2023-05-20T09:32:47.903Z,0.53
2023-05-20T09:33:48.780Z,0.53
2023-05-20T09:34:48.784Z,0.50
2023-05-20T09:35:47.948Z,0.51
2023-05-20T09:36:48.985Z,0.53
2023-05-20T09:37:48.795Z,0.51
2023-05-20T09:38:48.756Z,0.52
2023-05-20T09:39:47.804Z,0.51
2023-05-20T09:40:47.775Z,0.52
2023-05-20T09:41:48.831Z,0.52
2023-05-20T09:42:48.747Z,0.53
2023-05-20T09:43:48.942Z,0.52
2023-05-20T09:44:48.820Z,0.52
2023-05-20T09:45:48.739Z,0.52
2023-05-20T09:46:47.708Z,0.53
2023-05-20T09:47:47.789Z,0.53
2023-05-20T09:48:48.680Z,0.52
2023-05-20T09:49:48.896Z,0.52
2023-05-20T09:50:48.674Z,0.51
2023-05-20T09:51:48.663Z,0.54
2023-05-20T09:52:47.668Z,0.52
2023-05-20T09:53:48.697Z,0.54
2023-05-20T09:54:47.791Z,0.52
2023-05-20T09:55:47.704Z,0.52
2023-05-20T09:56:48.829Z,0.52
2023-05-20T09:57:48.626Z,0.52
2023-05-20T09:58:47.658Z,0.51
2023-05-20T09:59:47.624Z,0.52
2023-05-20T10:00:47.670Z,0.51
2023-05-20T10:01:48.994Z,0.51
2023-05-20T10:02:48.004Z,0.53
2023-05-20T10:03:47.714Z,0.52
2023-05-20T10:04:48.722Z,0.53
2023-05-20T10:05:48.638Z,0.53
2023-05-20T10:06:47.563Z,0.53
2023-05-20T10:07:47.669Z,0.52
2023-05-20T10:08:47.662Z,0.53
2023-05-20T10:09:47.712Z,0.51
2023-05-20T10:10:47.542Z,0.53
2023-05-20T10:11:47.579Z,0.51
2023-05-20T10:12:47.594Z,0.52
2023-05-20T10:13:47.566Z,0.51
2023-05-20T10:14:47.563Z,0.52
2023-05-20T10:15:47.768Z,0.50
2023-05-20T10:16:48.585Z,0.52
2023-05-20T10:17:47.627Z,0.52
2023-05-20T10:18:47.682Z,0.52
2023-05-20T10:19:48.605Z,0.51
2023-05-20T10:20:48.638Z,0.53
2023-05-20T10:21:48.848Z,0.53
2023-05-20T10:22:47.759Z,0.52
2023-05-20T10:23:48.860Z,0.54
2023-05-20T10:24:48.877Z,0.52
2023-05-20T10:25:47.894Z,0.52
2023-05-20T10:26:47.790Z,0.52
2023-05-20T10:27:47.695Z,0.52
2023-05-20T10:28:48.727Z,0.52
2023-05-20T10:30:47.733Z,0.52
2023-05-20T10:31:47.748Z,0.51
2023-05-20T10:32:48.817Z,0.52
2023-05-20T10:33:47.803Z,0.51
2023-05-20T10:34:47.816Z,0.52
2023-05-20T10:35:48.792Z,0.52
2023-05-20T10:36:47.824Z,0.52
2023-05-20T10:37:48.809Z,0.52
2023-05-20T10:38:48.874Z,0.51
2023-05-20T10:39:48.839Z,0.51
2023-05-20T10:40:47.928Z,0.53
2023-05-20T10:41:47.991Z,0.53
2023-05-20T10:42:47.859Z,0.52
2023-05-20T10:43:48.882Z,0.52
2023-05-20T10:44:47.901Z,0.51
2023-05-20T10:45:48.868Z,0.52
2023-05-20T10:47:03.838Z,0.51
2023-05-20T10:47:49.012Z,0.51
2023-05-20T10:48:48.081Z,0.51
2023-05-20T10:49:48.904Z,0.51
2023-05-20T10:50:47.937Z,0.52
2023-05-20T10:51:48.892Z,0.51
2023-05-20T10:52:48.868Z,0.52
2023-05-20T10:53:47.932Z,0.53
2023-05-20T10:54:50.861Z,0.53
2023-05-20T10:55:47.950Z,0.53
2023-05-20T10:56:47.868Z,0.52
2023-05-20T10:57:47.876Z,0.51
2023-05-20T10:58:48.819Z,0.53
2023-05-20T10:59:47.797Z,0.53
2023-05-20T11:00:50.721Z,0.52
2023-05-20T11:01:48.774Z,0.52
2023-05-20T11:02:48.832Z,0.52
2023-05-20T11:03:48.799Z,0.53
2023-05-20T11:04:47.863Z,0.53
2023-05-20T11:05:47.769Z,0.52
2023-05-20T11:06:48.810Z,0.54
2023-05-20T11:07:47.758Z,0.52
2023-05-20T11:08:47.749Z,0.52
2023-05-20T11:09:48.710Z,0.53
2023-05-20T11:10:48.715Z,0.51
2023-05-20T11:11:47.774Z,0.53
2023-05-20T11:12:48.910Z,0.51
2023-05-20T11:13:48.729Z,0.51
2023-05-20T11:14:48.819Z,0.51
2023-05-20T11:15:47.836Z,0.52
2023-05-20T11:16:48.758Z,0.52
2023-05-20T11:17:49.089Z,0.53
2023-05-20T11:18:48.751Z,0.54
2023-05-20T11:19:48.698Z,0.52
2023-05-20T11:20:47.678Z,0.52
2023-05-20T11:21:47.728Z,0.51
2023-05-20T11:22:48.864Z,0.52
2023-05-20T11:23:47.771Z,0.52
2023-05-20T11:24:47.628Z,0.52
2023-05-20T11:25:47.673Z,0.52
2023-05-20T11:26:47.618Z,0.52
2023-05-20T11:27:47.595Z,0.51
2023-05-20T11:28:47.586Z,0.51
2023-05-20T11:29:47.614Z,0.52
2023-05-20T11:30:47.575Z,0.52
2023-05-20T11:31:48.678Z,0.53
2023-05-20T11:32:47.598Z,0.52
2023-05-20T11:33:47.542Z,0.51
2023-05-20T11:34:47.554Z,0.52
2023-05-20T11:35:47.636Z,0.52
2023-05-20T11:36:48.552Z,0.51
2023-05-20T11:37:47.623Z,0.51
2023-05-20T11:38:47.671Z,0.51
2023-05-20T11:39:48.510Z,0.53
2023-05-20T11:40:51.018Z,0.52
2023-05-20T11:41:48.504Z,0.52
2023-05-20T11:42:47.487Z,0.52
2023-05-20T11:43:48.648Z,0.52
2023-05-20T11:44:48.475Z,0.53
2023-05-20T11:45:48.576Z,0.54
2023-05-20T11:46:47.500Z,0.52
2023-05-20T11:47:47.516Z,0.52
2023-05-20T11:48:47.573Z,0.51
2023-05-20T11:49:48.443Z,0.52
2023-05-20T11:50:48.481Z,0.52
2023-05-20T11:51:47.420Z,0.51
2023-05-20T11:52:47.550Z,0.52
2023-05-20T11:53:48.402Z,0.52
2023-05-20T11:54:47.389Z,0.51
2023-05-20T11:55:48.522Z,0.53
2023-05-20T11:56:48.396Z,0.51
2023-05-20T11:57:48.437Z,0.51
2023-05-20T11:58:48.513Z,0.53
2023-05-20T11:59:48.359Z,0.52
2023-05-20T12:00:54.782Z,0.52
2023-05-20T12:01:48.554Z,0.52
2023-05-20T12:02:47.428Z,0.52
2023-05-20T12:03:48.518Z,0.52
2023-05-20T12:04:48.473Z,0.53
2023-05-20T12:05:47.380Z,0.53
2023-05-20T12:06:48.532Z,0.53
2023-05-20T12:07:47.354Z,0.54
2023-05-20T12:08:48.305Z,0.52
2023-05-20T12:09:47.332Z,0.52
2023-05-20T12:10:48.383Z,0.53
2023-05-20T12:11:48.409Z,0.53
2023-05-20T12:12:48.295Z,0.53
2023-05-20T12:13:48.297Z,0.53
2023-05-20T12:14:48.325Z,0.52
2023-05-20T12:15:47.402Z,0.52
2023-05-20T12:16:47.259Z,0.52
2023-05-20T12:17:48.348Z,0.51
2023-05-20T12:18:47.288Z,0.52
2023-05-20T12:19:48.384Z,0.51
2023-05-20T12:20:47.328Z,0.54
2023-05-20T12:21:47.241Z,0.53
2023-05-20T12:22:48.296Z,0.52
2023-05-20T12:23:48.240Z,0.53
2023-05-20T12:24:48.198Z,0.53
2023-05-20T12:25:48.335Z,0.52
2023-05-20T12:26:47.171Z,0.52
2023-05-20T12:27:48.355Z,0.51
2023-05-20T12:28:47.167Z,0.53
2023-05-20T12:29:47.417Z,0.51
2023-05-20T12:30:47.164Z,0.51
2023-05-20T12:31:48.162Z,0.52
2023-05-20T12:32:48.166Z,0.50
2023-05-20T12:33:48.463Z,0.52
2023-05-20T12:34:48.113Z,0.52
2023-05-20T12:35:48.116Z,0.52
2023-05-20T12:36:47.302Z,0.52
2023-05-20T12:37:48.408Z,0.51
2023-05-20T12:38:47.161Z,0.51
2023-05-20T12:39:47.204Z,0.51
2023-05-20T12:40:48.340Z,0.52
2023-05-20T12:41:48.391Z,0.52
2023-05-20T12:42:48.328Z,0.50
2023-05-20T12:43:47.217Z,0.51
2023-05-20T12:44:47.202Z,0.51
2023-05-20T12:45:47.218Z,0.51
2023-05-20T12:46:48.234Z,0.51
2023-05-20T12:47:48.283Z,0.51
2023-05-20T12:48:47.359Z,0.51
2023-05-20T12:49:47.516Z,0.51
2023-05-20T12:50:47.259Z,0.51
2023-05-20T12:51:47.399Z,0.52
2023-05-20T12:52:47.511Z,0.52
2023-05-20T12:53:47.292Z,0.53
2023-05-20T12:54:47.280Z,0.52
2023-05-20T12:55:48.295Z,0.51
2023-05-20T12:56:48.301Z,0.51
2023-05-20T12:57:47.499Z,0.52
2023-05-20T12:58:48.419Z,0.51
2023-05-20T12:59:48.439Z,0.50
2023-05-20T13:00:48.468Z,0.51
2023-05-20T13:01:48.407Z,0.51
2023-05-20T13:02:48.532Z,0.51
2023-05-20T13:03:47.725Z,0.50
2023-05-20T13:04:47.581Z,0.51
2023-05-20T13:05:48.612Z,0.52
2023-05-20T13:06:47.628Z,0.52
2023-05-20T13:07:47.693Z,0.53
2023-05-20T13:08:47.679Z,0.53
2023-05-20T13:09:48.698Z,0.52
2023-05-20T13:10:48.797Z,0.52
2023-05-20T13:11:48.750Z,0.51
2023-05-20T13:12:48.761Z,0.51
2023-05-20T13:13:47.774Z,0.53
2023-05-20T13:14:48.028Z,0.53
2023-05-20T13:15:47.916Z,0.53
2023-05-20T13:16:48.967Z,0.52
2023-05-20T13:17:47.925Z,0.52
2023-05-20T13:18:48.284Z,0.52
2023-05-20T13:19:49.016Z,0.51
2023-05-20T13:20:49.137Z,0.51
2023-05-20T13:21:49.098Z,0.51
2023-05-20T13:22:49.187Z,0.51
2023-05-20T13:23:49.085Z,0.51
2023-05-20T13:24:49.122Z,0.52